Summer Lake, Oregon
Current Conditions -  °F | °C
As of 7:15 PM on Monday 26 Jan 2015 (Local Time) from KLKV Reporting Station
Clear Clear  
Wind Chill: 36°   Ceiling: Unl
Heat Index: 39°   Visibility: 10mi
Dew Point: 30°   Wind: 5mph
Humidity: 70%   Direction: 360°N
Pressure: 30.05"   Gusts: NA
Location:  42.97°N, 120.78°W
Report Text: KLKV 270315Z 36004KT 10SM CLR 04/M01 A3005 RMK AO1
Loading
Personal Weather Stations






























Interactive Weather Map New forecast layout! Learn more

10-Day Weather Forecast

Advertisements
Track Severe Weather on mobile